Time;durP1;ratioP1;P1;durP2;ratioP2;P2;SDS_P1;SDS_P2;PMS_P1;PMS_P2;Temp;Humidity;BMP_temperature;BMP_pressure;BME280_temperature;BME280_humidity;BME280_pressure;Samples;Min_cycle;Max_cycle;Signal;HPM_P1;HPM_P2
2023/05/16 00:00:05;;;;;;;;;;;;;;;23.96;34.30;101698.34;4131269;28;19973;-60
2023/05/16 00:02:07;;;;;;;;;;;;;;;23.98;34.53;101693.69;4131376;28;20433;-60
2023/05/16 00:04:09;;;;;;;;;;;;;;;23.99;34.46;101699.94;4131290;28;19928;-60
2023/05/16 00:06:11;;;;;;;;;;;;;;;23.99;34.52;101699.94;4131322;28;19921;-60
2023/05/16 00:08:12;;;;;;;;;;;;;;;23.98;34.47;101699.06;4129024;28;20012;-61
2023/05/16 00:10:14;;;;;;;;;;;;;;;23.99;34.28;101694.56;4131204;28;19930;-60
2023/05/16 00:12:16;;;;;;;;;;;;;;;23.97;34.35;101694.69;4131130;28;19945;-61
2023/05/16 00:14:18;;;;;;;;;;;;;;;23.97;34.07;101694.69;4130895;28;19922;-60
2023/05/16 00:16:20;;;;;;;;;;;;;;;23.97;34.44;101692.00;4131283;28;19922;-60
2023/05/16 00:18:22;;;;;;;;;;;;;;;23.97;34.40;101692.00;4130194;28;20357;-60
2023/05/16 00:20:27;;;;;;;;;;;;;;;23.95;34.34;101691.28;4130995;28;19926;-60
2023/05/16 00:22:29;;;;;;;;;;;;;;;23.98;34.38;101695.56;4131232;28;19922;-60
2023/05/16 00:24:31;;;;;;;;;;;;;;;23.98;34.25;101691.03;4129112;28;20383;-60
2023/05/16 00:26:33;;;;;;;;;;;;;;;23.99;34.04;101694.56;4131197;28;19936;-60
2023/05/16 00:28:34;;;;;;;;;;;;;;;23.86;34.26;101673.97;4129825;28;19925;-60
2023/05/16 00:30:36;;;;;;;;;;;;;;;24.00;34.21;101698.94;4130980;28;19933;-60
2023/05/16 00:32:38;;;;;;;;;;;;;;;23.99;34.12;101697.25;4130811;28;19941;-60
2023/05/16 00:34:39;;;;;;;;;;;;;;;23.99;34.20;101697.25;4130972;28;20350;-60
2023/05/16 00:36:41;;;;;;;;;;;;;;;23.99;34.14;101695.41;4130995;28;19929;-60
2023/05/16 00:38:43;;;;;;;;;;;;;;;23.99;34.16;101697.25;4129441;28;19949;-60
2023/05/16 00:40:45;;;;;;;;;;;;;;;23.97;34.04;101686.63;4131277;28;19941;-60
2023/05/16 00:42:46;;;;;;;;;;;;;;;23.98;34.19;101691.03;4130986;28;19949;-60
2023/05/16 00:44:48;;;;;;;;;;;;;;;23.99;34.19;101694.56;4130698;28;19921;-60
2023/05/16 00:46:49;;;;;;;;;;;;;;;23.99;34.14;101697.25;4131085;28;20031;-60
2023/05/16 00:48:51;;;;;;;;;;;;;;;24.00;33.98;101693.56;4130719;28;20415;-60
2023/05/16 00:50:53;;;;;;;;;;;;;;;23.99;34.07;101695.41;4134234;28;20346;-60
2023/05/16 00:52:54;;;;;;;;;;;;;;;24.01;33.87;101688.09;4133754;28;19968;-60
2023/05/16 00:54:56;;;;;;;;;;;;;;;24.01;33.97;101689.91;4133963;28;19921;-60
2023/05/16 00:56:57;;;;;;;;;;;;;;;24.01;34.01;101687.22;4133745;28;19992;-61
2023/05/16 00:58:59;;;;;;;;;;;;;;;24.00;33.64;101689.06;4132785;28;19922;-59
2023/05/16 01:01:02;;;;;;;;;;;;;;;24.00;33.90;101688.19;4133734;28;19933;-59
2023/05/16 01:03:04;;;;;;;;;;;;;;;23.99;33.86;101690.03;4133930;28;19926;-60
2023/05/16 01:05:07;;;;;;;;;;;;;;;23.98;33.86;101699.06;4133785;28;19952;-60
2023/05/16 01:07:08;;;;;;;;;;;;;;;23.98;33.87;101692.88;4133337;28;20332;-60
2023/05/16 01:09:11;;;;;;;;;;;;;;;23.98;33.84;101701.75;4132735;28;19984;-60
2023/05/16 01:11:21;;;;;;;;;;;;;;;23.98;33.65;101692.88;4133675;28;19929;-60
2023/05/16 01:13:42;;;;;;;;;;;;;;;23.98;33.62;101696.41;4133717;28;19922;-60
2023/05/16 01:15:55;;;;;;;;;;;;;;;23.99;33.82;101694.56;4133426;28;19932;-59
2023/05/16 01:17:57;;;;;;;;;;;;;;;24.00;33.67;101696.25;4132752;28;19976;-60
2023/05/16 01:20:06;;;;;;;;;;;;;;;23.99;33.70;101698.09;4133390;28;19928;-59
2023/05/16 01:22:31;;;;;;;;;;;;;;;24.01;33.59;101696.16;4133248;28;19953;-59
2023/05/16 01:24:37;;;;;;;;;;;;;;;24.00;33.53;101696.25;4116614;28;19922;-60
2023/05/16 01:26:40;;;;;;;;;;;;;;;23.99;33.67;101691.91;4117239;28;19921;-61
2023/05/16 01:28:44;;;;;;;;;;;;;;;23.98;33.47;101695.56;4116261;28;19922;-61
2023/05/16 01:30:45;;;;;;;;;;;;;;;23.97;33.56;101692.00;4117224;28;20005;-60
2023/05/16 01:32:47;;;;;;;;;;;;;;;23.98;33.72;101692.88;4117279;28;19984;-60
2023/05/16 01:34:52;;;;;;;;;;;;;;;23.97;33.67;101688.47;4117092;28;19922;-60
2023/05/16 01:37:20;;;;;;;;;;;;;;;23.98;33.53;101699.06;4117116;28;20383;-60
2023/05/16 01:39:21;;;;;;;;;;;;;;;23.99;33.49;101690.03;4113741;28;19930;-61
2023/05/16 01:41:24;;;;;;;;;;;;;;;23.99;33.64;101705.31;4117238;28;19922;-60
2023/05/16 01:43:43;;;;;;;;;;;;;;;24.00;33.61;101696.25;4117099;28;19929;-60
2023/05/16 01:45:52;;;;;;;;;;;;;;;24.00;33.41;101702.50;4116896;28;19940;-60
2023/05/16 01:47:58;;;;;;;;;;;;;;;24.00;33.51;101702.50;4116710;28;20030;-60
2023/05/16 01:50:02;;;;;;;;;;;;;;;23.99;33.53;101698.09;4116648;28;19922;-59
2023/05/16 01:52:07;;;;;;;;;;;;;;;24.00;33.55;101707.00;4116968;28;19926;-60
2023/05/16 01:54:10;;;;;;;;;;;;;;;23.99;33.28;101702.63;4116939;28;19922;-60
2023/05/16 01:56:14;;;;;;;;;;;;;;;23.99;33.19;101706.16;4117056;28;20032;-60
2023/05/16 01:58:18;;;;;;;;;;;;;;;23.98;33.52;101704.44;4116028;28;19926;-61
2023/05/16 02:00:19;;;;;;;;;;;;;;;24.00;33.40;101701.63;4115741;28;19922;-60
2023/05/16 02:02:21;;;;;;;;;;;;;;;24.00;33.17;101705.19;4116792;28;19922;-60
2023/05/16 02:04:23;;;;;;;;;;;;;;;24.00;33.45;101710.56;4116502;28;19941;-61
2023/05/16 02:06:27;;;;;;;;;;;;;;;24.00;33.25;101704.31;4116573;28;19926;-60
2023/05/16 02:08:30;;;;;;;;;;;;;;;24.02;33.32;101707.75;4115834;28;19957;-60
2023/05/16 02:10:31;;;;;;;;;;;;;;;24.01;33.39;101712.28;4116525;28;19922;-60
2023/05/16 02:12:33;;;;;;;;;;;;;;;24.01;33.47;101712.28;4116771;28;19922;-60
2023/05/16 02:14:34;;;;;;;;;;;;;;;24.01;33.37;101711.41;4116761;28;19925;-60
2023/05/16 02:16:36;;;;;;;;;;;;;;;24.01;33.22;101706.03;4099388;29;20418;-60
2023/05/16 02:18:37;;;;;;;;;;;;;;;24.00;33.21;101709.69;4115632;28;19925;-60
2023/05/16 02:20:39;;;;;;;;;;;;;;;23.99;33.22;101708.00;4116096;28;20404;-60
2023/05/16 02:22:46;;;;;;;;;;;;;;;24.00;32.99;101713.25;4116670;28;19925;-60
2023/05/16 02:24:47;;;;;;;;;;;;;;;24.00;32.99;101715.06;4116449;28;20001;-60
2023/05/16 02:26:49;;;;;;;;;;;;;;;24.01;33.30;101712.28;4116251;28;19926;-60
2023/05/16 02:28:50;;;;;;;;;;;;;;;24.00;33.27;101715.06;4115201;28;19993;-60
2023/05/16 02:30:59;;;;;;;;;;;;;;;24.01;33.28;101714.09;4116475;28;19922;-60
2023/05/16 02:33:00;;;;;;;;;;;;;;;24.01;33.33;101708.72;4116295;28;19922;-60
2023/05/16 02:35:02;;;;;;;;;;;;;;;24.03;33.03;101712.16;4115928;28;20376;-60
2023/05/16 02:37:03;;;;;;;;;;;;;;;24.02;33.26;101710.44;4116102;28;19922;-60
2023/05/16 02:39:06;;;;;;;;;;;;;;;24.03;33.17;101709.47;4115204;28;19926;-60
2023/05/16 02:41:08;;;;;;;;;;;;;;;24.02;33.00;101708.63;4116138;28;20016;-60
2023/05/16 02:43:09;;;;;;;;;;;;;;;24.02;33.18;101711.31;4116529;28;19996;-61
2023/05/16 02:45:11;;;;;;;;;;;;;;;24.01;33.03;101714.97;4116397;28;20291;-60
2023/05/16 02:47:12;;;;;;;;;;;;;;;24.01;33.21;101714.09;4116368;28;19980;-60
2023/05/16 02:49:14;;;;;;;;;;;;;;;24.00;33.06;101720.44;4114755;28;19921;-60
2023/05/16 02:51:16;;;;;;;;;;;;;;;24.00;32.99;101718.63;4116018;28;20310;-60
2023/05/16 02:53:17;;;;;;;;;;;;;;;24.01;33.10;101717.66;4116004;28;19929;-61
2023/05/16 02:55:19;;;;;;;;;;;;;;;24.03;33.04;101717.53;4116086;28;20379;-60
2023/05/16 02:57:23;;;;;;;;;;;;;;;24.03;33.03;101718.38;4115796;28;19929;-60
2023/05/16 02:59:25;;;;;;;;;;;;;;;24.03;33.04;101715.69;4114622;28;19922;-60
2023/05/16 03:01:26;;;;;;;;;;;;;;;24.03;33.15;101722.91;4116101;28;20366;-60
2023/05/16 03:03:28;;;;;;;;;;;;;;;24.03;33.06;101720.22;4115647;28;20387;-60
2023/05/16 03:05:30;;;;;;;;;;;;;;;24.02;32.90;101721.19;4115938;28;20009;-60
2023/05/16 03:07:32;;;;;;;;;;;;;;;24.03;32.98;101717.53;4115863;28;20025;-60
2023/05/16 03:09:34;;;;;;;;;;;;;;;24.01;33.12;101725.72;4114914;28;19953;-60
2023/05/16 03:11:35;;;;;;;;;;;;;;;24.00;32.70;101718.63;4115677;28;19925;-60
2023/05/16 03:13:37;;;;;;;;;;;;;;;24.00;33.06;101718.63;4115872;28;20004;-60
2023/05/16 03:15:39;;;;;;;;;;;;;;;24.00;32.62;101724.00;4115699;28;20015;-61
2023/05/16 03:17:40;;;;;;;;;;;;;;;24.00;33.03;101729.38;4115489;28;20429;-60
2023/05/16 03:19:42;;;;;;;;;;;;;;;24.02;32.94;101729.25;4114447;28;20253;-60
2023/05/16 03:21:43;;;;;;;;;;;;;;;24.02;32.96;101731.94;4115685;28;19925;-60
2023/05/16 03:23:45;;;;;;;;;;;;;;;24.02;32.80;101730.13;4123885;28;19921;-60
2023/05/16 03:25:46;;;;;;;;;;;;;;;24.03;32.67;101731.81;4131420;28;19984;-61
2023/05/16 03:27:48;;;;;;;;;;;;;;;24.02;32.94;101727.44;4131799;28;19929;-60
2023/05/16 03:29:49;;;;;;;;;;;;;;;24.03;32.53;101731.81;4130374;28;19922;-60
2023/05/16 03:31:51;;;;;;;;;;;;;;;24.00;32.76;101734.75;4130193;28;19930;-60
2023/05/16 03:33:53;;;;;;;;;;;;;;;24.02;32.98;101737.31;4131389;28;19922;-60
2023/05/16 03:35:54;;;;;;;;;;;;;;;23.99;32.95;101735.72;4131451;28;20012;-61
2023/05/16 03:37:56;;;;;;;;;;;;;;;23.89;32.93;101721.22;4131397;28;19972;-60
2023/05/16 03:39:58;;;;;;;;;;;;;;;24.01;33.09;101743.66;4130250;28;19933;-60
2023/05/16 03:41:59;;;;;;;;;;;;;;;24.00;32.83;101745.50;4131488;28;19942;-60
2023/05/16 03:44:01;;;;;;;;;;;;;;;24.02;32.81;101748.94;4131722;28;19952;-60
2023/05/16 03:46:03;;;;;;;;;;;;;;;24.01;32.85;101757.97;4131120;28;19922;-60
2023/05/16 03:48:04;;;;;;;;;;;;;;;24.03;32.50;101766.75;4131352;28;20272;-61
2023/05/16 03:50:06;;;;;;;;;;;;;;;24.02;32.50;101765.06;4130076;28;19926;-60
2023/05/16 03:52:07;;;;;;;;;;;;;;;24.03;32.57;101763.22;4131422;28;19925;-60
2023/05/16 03:54:09;;;;;;;;;;;;;;;24.03;32.63;101768.59;4131360;28;19944;-60
2023/05/16 03:56:10;;;;;;;;;;;;;;;24.02;32.75;101761.50;4131245;28;19922;-60
2023/05/16 03:58:12;;;;;;;;;;;;;;;24.01;32.72;101774.09;4131235;28;19925;-60
2023/05/16 04:00:14;;;;;;;;;;;;;;;24.01;32.55;101767.84;4130086;28;20138;-60
2023/05/16 04:02:15;;;;;;;;;;;;;;;23.99;32.50;101764.44;4130731;28;19979;-60
2023/05/16 04:04:19;;;;;;;;;;;;;;;23.98;32.87;101768.94;4131316;28;19922;-60
2023/05/16 04:06:21;;;;;;;;;;;;;;;23.98;32.65;101770.78;4131405;28;19922;-60
2023/05/16 04:08:22;;;;;;;;;;;;;;;23.99;32.85;101764.44;4130778;28;20375;-60
2023/05/16 04:10:24;;;;;;;;;;;;;;;24.00;32.70;101775.06;4130859;28;20344;-61
2023/05/16 04:12:26;;;;;;;;;;;;;;;24.01;32.67;101773.22;4131122;28;19972;-60
2023/05/16 04:14:27;;;;;;;;;;;;;;;24.00;32.52;101776.88;4131070;28;19921;-60
2023/05/16 04:16:28;;;;;;;;;;;;;;;23.93;32.34;101763.06;4129665;28;19922;-60
2023/05/16 04:18:30;;;;;;;;;;;;;;;24.01;32.41;101781.28;4130446;28;19928;-61
2023/05/16 04:20:31;;;;;;;;;;;;;;;24.00;32.43;101782.25;4130948;28;19921;-60
2023/05/16 04:22:33;;;;;;;;;;;;;;;24.00;32.68;101784.94;4131031;28;19945;-60
2023/05/16 04:24:35;;;;;;;;;;;;;;;23.99;32.56;101778.72;4132983;28;19921;-60
2023/05/16 04:26:36;;;;;;;;;;;;;;;24.00;32.44;101784.94;4134316;28;19926;-61
2023/05/16 04:28:38;;;;;;;;;;;;;;;23.99;32.56;101783.25;4133393;28;19922;-60
2023/05/16 04:30:39;;;;;;;;;;;;;;;23.99;32.38;101786.78;4133807;28;19969;-60
2023/05/16 04:32:41;;;;;;;;;;;;;;;24.00;32.61;101793.88;4134318;28;19921;-60
2023/05/16 04:34:45;;;;;;;;;;;;;;;23.99;32.15;101786.78;4134062;28;19952;-61
2023/05/16 04:36:47;;;;;;;;;;;;;;;24.00;32.63;101787.63;4134583;28;19929;-60
2023/05/16 04:38:48;;;;;;;;;;;;;;;24.00;32.62;101790.31;4133087;28;20184;-60
2023/05/16 04:40:50;;;;;;;;;;;;;;;24.00;32.37;101788.50;4133921;28;19948;-60
2023/05/16 04:42:53;;;;;;;;;;;;;;;24.00;32.25;101791.19;4134283;28;19930;-60
2023/05/16 04:44:55;;;;;;;;;;;;;;;24.00;32.37;101790.31;4133567;28;19941;-61
2023/05/16 04:46:56;;;;;;;;;;;;;;;24.00;32.37;101793.00;4133994;28;19929;-60
2023/05/16 04:48:58;;;;;;;;;;;;;;;24.01;32.43;101792.03;4132958;28;20012;-61
2023/05/16 04:50:59;;;;;;;;;;;;;;;24.00;32.54;101793.00;4134031;28;20000;-60
2023/05/16 04:53:01;;;;;;;;;;;;;;;23.98;32.55;101794.97;4134079;28;19976;-60
2023/05/16 04:55:03;;;;;;;;;;;;;;;23.98;32.25;101798.50;4134024;28;20291;-60
2023/05/16 04:57:04;;;;;;;;;;;;;;;23.96;32.54;101800.44;4133877;28;19976;-60
2023/05/16 04:59:06;;;;;;;;;;;;;;;23.97;32.43;101804.00;4132414;28;19921;-60
2023/05/16 05:01:07;;;;;;;;;;;;;;;23.97;32.05;101804.84;4133593;28;19968;-60
2023/05/16 05:03:09;;;;;;;;;;;;;;;23.98;32.50;101800.34;4133825;28;19937;-60
2023/05/16 05:05:11;;;;;;;;;;;;;;;23.97;32.31;101802.16;4133706;28;19922;-60
2023/05/16 05:07:13;;;;;;;;;;;;;;;23.85;32.45;101786.94;4133851;28;19976;-60
2023/05/16 05:09:15;;;;;;;;;;;;;;;23.99;32.19;101812.81;4132686;28;19921;-60
2023/05/16 05:11:16;;;;;;;;;;;;;;;23.98;32.19;101811.09;4133746;28;19937;-60
2023/05/16 05:13:18;;;;;;;;;;;;;;;23.98;32.26;101809.25;4133304;28;19928;-60
2023/05/16 05:15:19;;;;;;;;;;;;;;;23.98;32.08;101805.72;4133564;28;19925;-60
2023/05/16 05:17:22;;;;;;;;;;;;;;;23.96;32.11;101813.88;4133659;28;20406;-59
2023/05/16 05:19:24;;;;;;;;;;;;;;;23.95;32.09;101812.19;4115038;28;19929;-59
2023/05/16 05:21:26;;;;;;;;;;;;;;;23.95;32.28;101812.19;4133832;28;19937;-60
2023/05/16 05:23:29;;;;;;;;;;;;;;;23.96;32.34;101813.03;4133344;28;19928;-59
2023/05/16 05:25:32;;;;;;;;;;;;;;;23.95;32.56;101814.88;4133431;28;19921;-59
2023/05/16 05:27:36;;;;;;;;;;;;;;;23.95;32.39;101812.19;4133014;28;20327;-59
2023/05/16 05:29:38;;;;;;;;;;;;;;;23.95;32.14;101817.56;4132322;28;20117;-59
2023/05/16 05:31:39;;;;;;;;;;;;;;;23.95;32.23;101819.38;4133584;28;19921;-59
2023/05/16 05:33:41;;;;;;;;;;;;;;;23.95;32.42;101820.25;4133320;28;19922;-60
2023/05/16 05:35:42;;;;;;;;;;;;;;;23.96;32.22;101819.25;4133088;28;19976;-62
2023/05/16 05:37:44;;;;;;;;;;;;;;;23.96;32.42;101823.78;4133214;28;20343;-61
2023/05/16 05:39:46;;;;;;;;;;;;;;;23.93;32.36;101824.88;4131756;28;19921;-59
2023/05/16 05:41:47;;;;;;;;;;;;;;;23.93;32.00;101823.03;4132065;28;19930;-62
2023/05/16 05:43:49;;;;;;;;;;;;;;;23.93;32.17;101824.88;4132949;28;19965;-62
2023/05/16 05:45:51;;;;;;;;;;;;;;;23.90;32.11;101828.59;4132976;28;20022;-62
2023/05/16 05:47:52;;;;;;;;;;;;;;;23.88;32.47;101829.69;4133329;28;19922;-61
2023/05/16 05:49:54;;;;;;;;;;;;;;;23.89;32.05;101831.38;4132139;28;19945;-62
2023/05/16 05:51:55;;;;;;;;;;;;;;;23.90;32.29;101833.97;4133101;28;19980;-59
2023/05/16 05:53:57;;;;;;;;;;;;;;;23.90;32.29;101833.97;4133132;28;19926;-62
2023/05/16 05:55:59;;;;;;;;;;;;;;;23.89;32.12;101829.56;4132997;28;20350;-62
2023/05/16 05:58:01;;;;;;;;;;;;;;;23.89;32.37;101836.75;4131678;28;19947;-62
2023/05/16 06:00:04;;;;;;;;;;;;;;;23.88;32.19;101837.75;4131550;28;19921;-62
2023/05/16 06:02:06;;;;;;;;;;;;;;;23.88;32.22;101835.06;4132978;28;19928;-62
2023/05/16 06:04:08;;;;;;;;;;;;;;;23.89;32.01;101836.75;4132962;28;19921;-62
2023/05/16 06:06:10;;;;;;;;;;;;;;;23.88;31.96;101832.38;4132942;28;19938;-61
2023/05/16 06:08:11;;;;;;;;;;;;;;;23.86;32.09;101837.00;4132935;28;19921;-62
2023/05/16 06:10:13;;;;;;;;;;;;;;;23.86;32.01;101828.94;4131837;28;20016;-62
2023/05/16 06:12:14;;;;;;;;;;;;;;;23.86;32.17;101832.47;4132683;28;19933;-61
2023/05/16 06:14:16;;;;;;;;;;;;;;;23.86;31.79;101845.06;4131539;28;19961;-62
2023/05/16 06:16:17;;;;;;;;;;;;;;;23.86;31.88;101840.53;4132654;28;19926;-62
2023/05/16 06:18:19;;;;;;;;;;;;;;;23.86;32.06;101845.06;4132955;28;20401;-62
2023/05/16 06:20:21;;;;;;;;;;;;;;;23.88;32.02;101848.50;4131503;28;20391;-61
2023/05/16 06:22:23;;;;;;;;;;;;;;;23.87;31.68;101852.16;4132549;28;19931;-62
2023/05/16 06:24:24;;;;;;;;;;;;;;;23.86;31.75;101850.44;4132469;28;19922;-61
2023/05/16 06:26:26;;;;;;;;;;;;;;;23.85;31.74;101854.09;4132259;28;20020;-62
2023/05/16 06:28:27;;;;;;;;;;;;;;;23.84;31.90;101849.69;4132624;28;19936;-61
2023/05/16 06:30:29;;;;;;;;;;;;;;;23.84;31.94;101855.94;4131589;28;19929;-61
2023/05/16 06:32:31;;;;;;;;;;;;;;;23.79;31.66;101850.03;4132344;28;20036;-61
2023/05/16 06:34:32;;;;;;;;;;;;;;;23.83;31.85;101854.22;4132256;28;20348;-62
2023/05/16 06:36:34;;;;;;;;;;;;;;;23.82;31.65;101860.56;4132443;28;19925;-62
2023/05/16 06:38:35;;;;;;;;;;;;;;;23.83;31.87;101870.34;4132092;28;19929;-62
2023/05/16 06:40:37;;;;;;;;;;;;;;;23.82;31.80;101868.63;4131032;28;19929;-62
2023/05/16 06:42:38;;;;;;;;;;;;;;;23.84;31.69;101876.56;4115277;28;19961;-62
2023/05/16 06:44:42;;;;;;;;;;;;;;;23.82;31.42;101867.78;4132502;28;19921;-61
2023/05/16 06:46:44;;;;;;;;;;;;;;;23.81;31.52;101858.84;4131629;28;19969;-62
2023/05/16 06:48:46;;;;;;;;;;;;;;;23.80;31.83;101867.84;4132344;28;19972;-62
2023/05/16 06:50:48;;;;;;;;;;;;;;;23.81;31.53;101874.09;4131305;28;19938;-62
2023/05/16 06:52:49;;;;;;;;;;;;;;;23.82;31.77;101859.72;4132160;28;20020;-61
2023/05/16 06:54:51;;;;;;;;;;;;;;;23.80;31.80;101870.53;4131670;28;19965;-61
2023/05/16 06:56:52;;;;;;;;;;;;;;;23.79;31.63;101876.88;4132178;28;19922;-62
2023/05/16 06:58:55;;;;;;;;;;;;;;;23.77;31.68;101871.63;4131595;28;19922;-62
2023/05/16 07:00:56;;;;;;;;;;;;;;;23.78;31.62;101872.50;4131309;28;19921;-61
2023/05/16 07:02:58;;;;;;;;;;;;;;;23.76;31.90;101869.91;4132312;28;20403;-61
2023/05/16 07:05:00;;;;;;;;;;;;;;;23.78;31.80;101880.56;4131915;28;20008;-61
2023/05/16 07:07:01;;;;;;;;;;;;;;;23.78;31.79;101869.81;4132124;28;19921;-62
2023/05/16 07:09:03;;;;;;;;;;;;;;;23.78;31.75;101861.75;4130853;28;20402;-63
2023/05/16 07:11:05;;;;;;;;;;;;;;;23.80;31.89;101875.91;4131340;28;19921;-62
2023/05/16 07:13:06;;;;;;;;;;;;;;;23.80;31.56;101875.91;4131727;28;19948;-62
2023/05/16 07:15:08;;;;;;;;;;;;;;;23.79;31.95;101878.72;4131707;28;19945;-61
2023/05/16 07:17:10;;;;;;;;;;;;;;;23.80;31.73;101883.13;4131782;28;20004;-61
2023/05/16 07:19:12;;;;;;;;;;;;;;;23.79;31.78;101884.94;4131126;28;19995;-62
2023/05/16 07:21:13;;;;;;;;;;;;;;;23.78;31.74;101877.88;4131749;28;19929;-61
2023/05/16 07:23:15;;;;;;;;;;;;;;;23.79;31.65;101878.72;4131760;28;20364;-61
2023/05/16 07:25:17;;;;;;;;;;;;;;;23.80;31.65;101878.59;4131312;28;19932;-61
2023/05/16 07:27:18;;;;;;;;;;;;;;;23.80;31.88;101894.72;4131982;28;20447;-62
2023/05/16 07:29:23;;;;;;;;;;;;;;;23.79;31.67;101879.56;4130856;28;20423;-62
2023/05/16 07:31:25;;;;;;;;;;;;;;;23.79;31.77;101884.94;4131508;28;19956;-61
2023/05/16 07:33:27;;;;;;;;;;;;;;;23.79;31.48;101887.63;4131572;28;20032;-62
2023/05/16 07:35:28;;;;;;;;;;;;;;;23.80;31.68;101907.31;4131733;28;19956;-62
2023/05/16 07:37:30;;;;;;;;;;;;;;;23.82;31.74;101900.00;4131428;28;20340;-61
2023/05/16 07:39:32;;;;;;;;;;;;;;;23.82;31.71;101891.94;4129981;28;19932;-62
2023/05/16 07:41:34;;;;;;;;;;;;;;;23.82;31.84;101894.63;4131386;28;19921;-61
2023/05/16 07:43:35;;;;;;;;;;;;;;;23.84;31.81;101906.09;4131543;28;19928;-61
2023/05/16 07:45:37;;;;;;;;;;;;;;;23.83;31.82;101893.63;4131188;28;19921;-62
2023/05/16 07:47:39;;;;;;;;;;;;;;;23.80;31.66;101899.25;4131391;28;19925;-61
2023/05/16 07:49:41;;;;;;;;;;;;;;;23.81;31.56;101900.97;4130341;28;20016;-61
2023/05/16 07:51:42;;;;;;;;;;;;;;;23.82;31.61;101897.31;4131485;28;19921;-62
2023/05/16 07:53:44;;;;;;;;;;;;;;;23.81;31.46;101893.75;4131093;28;19928;-61
2023/05/16 07:55:45;;;;;;;;;;;;;;;23.83;31.39;101899.00;4131246;28;19961;-62
2023/05/16 07:57:47;;;;;;;;;;;;;;;23.83;31.55;101899.88;4130823;28;20016;-62
2023/05/16 07:59:50;;;;;;;;;;;;;;;23.83;31.52;101890.94;4129846;28;20002;-62
2023/05/16 08:01:53;;;;;;;;;;;;;;;23.84;31.33;101890.84;4131043;28;19976;-61
2023/05/16 08:03:55;;;;;;;;;;;;;;;23.84;31.24;101896.22;4129985;28;20013;-61
2023/05/16 08:05:56;;;;;;;;;;;;;;;23.84;31.31;101892.66;4131289;28;19921;-62
2023/05/16 08:07:58;;;;;;;;;;;;;;;23.81;31.42;101895.59;4131066;28;20435;-61
2023/05/16 08:10:00;;;;;;;;;;;;;;;23.84;31.17;101898.03;4130036;28;20356;-61
2023/05/16 08:12:02;;;;;;;;;;;;;;;23.84;31.39;101895.34;4131176;28;20376;-60
2023/05/16 08:14:05;;;;;;;;;;;;;;;23.82;31.05;101887.41;4131220;28;19922;-61
2023/05/16 08:16:06;;;;;;;;;;;;;;;23.84;31.30;101901.59;4131333;28;19925;-58
2023/05/16 08:18:13;;;;;;;;;;;;;;;23.84;31.35;101892.66;4131120;28;20057;-59
2023/05/16 08:20:15;;;;;;;;;;;;;;;23.86;31.15;101896.13;4130068;28;19921;-59
2023/05/16 08:22:16;;;;;;;;;;;;;;;23.85;31.10;101899.75;4129646;28;19957;-59
2023/05/16 08:24:18;;;;;;;;;;;;;;;23.87;31.21;101896.00;4130932;28;19945;-61
2023/05/16 08:26:20;;;;;;;;;;;;;;;23.88;30.96;101896.88;4131191;28;19933;-61
2023/05/16 08:28:22;;;;;;;;;;;;;;;23.91;31.04;101885.88;4131216;28;19921;-61
2023/05/16 08:30:24;;;;;;;;;;;;;;;23.94;31.11;101899.13;4129897;28;19922;-61
2023/05/16 08:32:26;;;;;;;;;;;;;;;23.93;31.07;101895.56;4131315;28;19922;-62
2023/05/16 08:34:30;;;;;;;;;;;;;;;23.93;30.77;101898.25;4131138;28;20347;-62
2023/05/16 08:36:34;;;;;;;;;;;;;;;23.93;31.00;101900.09;4130707;28;20020;-60
2023/05/16 08:38:36;;;;;;;;;;;;;;;23.93;31.14;101892.88;4130684;28;20000;-60
2023/05/16 08:40:38;;;;;;;;;;;;;;;23.90;30.79;101900.28;4129821;28;20027;-59
2023/05/16 08:42:40;;;;;;;;;;;;;;;23.90;30.79;101893.09;4130939;28;19925;-60
2023/05/16 08:44:44;;;;;;;;;;;;;;;23.91;30.91;101896.63;4130749;28;19975;-60
2023/05/16 08:46:52;;;;;;;;;;;;;;;23.92;30.75;101891.16;4131138;28;19926;-62
2023/05/16 08:48:55;;;;;;;;;;;;;;;23.95;30.82;101894.59;4130839;28;19926;-60
2023/05/16 08:50:57;;;;;;;;;;;;;;;23.93;30.82;101898.25;4129479;28;20422;-59
2023/05/16 08:53:04;;;;;;;;;;;;;;;23.92;30.65;101903.72;4131017;28;20010;-59
2023/05/16 08:55:08;;;;;;;;;;;;;;;23.93;30.71;101897.41;4130912;28;20347;-59
2023/05/16 08:57:12;;;;;;;;;;;;;;;23.92;30.97;101909.09;4130971;28;19922;-60
2023/05/16 08:59:15;;;;;;;;;;;;;;;23.93;30.67;101900.09;4130901;28;19921;-60
2023/05/16 09:01:17;;;;;;;;;;;;;;;23.93;30.70;101900.94;4129866;28;19925;-60
2023/05/16 09:03:20;;;;;;;;;;;;;;;23.92;31.00;101899.22;4130663;28;19957;-60
2023/05/16 09:05:22;;;;;;;;;;;;;;;23.93;30.96;101898.25;4130242;28;20016;-60
2023/05/16 09:07:24;;;;;;;;;;;;;;;23.92;31.07;101898.34;4130976;28;20406;-60
2023/05/16 09:09:26;;;;;;;;;;;;;;;23.92;30.60;101903.72;4130571;28;19925;-60
2023/05/16 09:11:27;;;;;;;;;;;;;;;23.92;30.75;101893.84;4133302;28;19926;-60
2023/05/16 09:13:29;;;;;;;;;;;;;;;23.95;30.76;101900.84;4133795;28;20012;-60
2023/05/16 09:15:32;;;;;;;;;;;;;;;23.96;30.93;101897.16;4133495;28;19925;-60
2023/05/16 09:17:37;;;;;;;;;;;;;;;23.95;30.94;101900.84;4133453;28;19922;-59
2023/05/16 09:19:47;;;;;;;;;;;;;;;23.96;30.65;101901.69;4132185;28;19961;-60
2023/05/16 09:21:48;;;;;;;;;;;;;;;23.95;30.62;101906.22;4133519;28;19929;-60
2023/05/16 09:23:51;;;;;;;;;;;;;;;23.97;30.87;101898.88;4133366;28;19936;-60
2023/05/16 09:25:52;;;;;;;;;;;;;;;23.96;30.89;101902.53;4133369;28;19928;-59
2023/05/16 09:27:54;;;;;;;;;;;;;;;23.98;30.58;101902.44;4133471;28;19953;-60
2023/05/16 09:29:56;;;;;;;;;;;;;;;23.96;30.51;101905.22;4132556;28;19932;-60
2023/05/16 09:32:03;;;;;;;;;;;;;;;23.95;30.75;101908.03;4133159;28;19928;-60
2023/05/16 09:34:11;;;;;;;;;;;;;;;23.96;30.38;101907.91;4115736;28;19922;-60
2023/05/16 09:36:13;;;;;;;;;;;;;;;23.96;30.55;101905.22;4133442;28;19921;-60
2023/05/16 09:38:16;;;;;;;;;;;;;;;23.98;30.45;101903.28;4133064;28;19922;-59
2023/05/16 09:40:21;;;;;;;;;;;;;;;23.89;30.79;101882.44;4132163;28;19922;-59
2023/05/16 09:42:24;;;;;;;;;;;;;;;23.99;30.56;101904.16;4133029;28;19926;-59
2023/05/16 09:44:26;;;;;;;;;;;;;;;23.99;30.51;101898.78;4133372;28;20013;-60
2023/05/16 09:46:27;;;;;;;;;;;;;;;24.01;30.52;101903.09;4132982;28;20009;-59
2023/05/16 09:48:30;;;;;;;;;;;;;;;23.99;30.40;101902.31;4133050;28;19922;-60
2023/05/16 09:50:33;;;;;;;;;;;;;;;23.99;30.00;101896.09;4131909;28;19949;-60
2023/05/16 09:52:36;;;;;;;;;;;;;;;24.00;30.38;101893.31;4133415;28;19922;-60
2023/05/16 09:54:37;;;;;;;;;;;;;;;23.99;30.13;101907.69;4133130;28;19932;-60
2023/05/16 09:56:49;;;;;;;;;;;;;;;23.98;30.18;101905.97;4133131;28;19928;-60
2023/05/16 09:58:51;;;;;;;;;;;;;;;23.99;30.04;101901.47;4133123;28;19921;-60
2023/05/16 10:00:55;;;;;;;;;;;;;;;24.00;30.24;101904.03;4131780;28;19957;-60
2023/05/16 10:02:57;;;;;;;;;;;;;;;24.00;30.14;101904.03;4132367;28;20044;-60
2023/05/16 10:04:58;;;;;;;;;;;;;;;24.01;30.12;101907.56;4132820;28;20327;-60
2023/05/16 10:07:09;;;;;;;;;;;;;;;24.01;30.06;101902.19;4131760;28;19926;-60
2023/05/16 10:09:11;;;;;;;;;;;;;;;24.02;30.03;101896.75;4132562;28;19932;-60
2023/05/16 10:11:14;;;;;;;;;;;;;;;24.02;29.89;101903.94;4131733;28;19984;-60
2023/05/16 10:13:17;;;;;;;;;;;;;;;24.02;29.90;101907.50;4132806;28;19929;-59
2023/05/16 10:15:19;;;;;;;;;;;;;;;24.02;29.78;101891.38;4132407;28;19921;-60
2023/05/16 10:17:21;;;;;;;;;;;;;;;24.02;30.06;101888.69;4132518;28;19925;-60
2023/05/16 10:19:24;;;;;;;;;;;;;;;24.03;29.96;101892.22;4115476;28;19993;-60
2023/05/16 10:21:27;;;;;;;;;;;;;;;24.02;29.77;101894.06;4130906;28;20312;-60
2023/05/16 10:23:30;;;;;;;;;;;;;;;24.01;30.06;101878.91;4132485;28;19921;-60
2023/05/16 10:25:33;;;;;;;;;;;;;;;24.01;29.89;101876.22;4132387;28;19941;-60
2023/05/16 10:27:35;;;;;;;;;;;;;;;24.02;29.82;101882.44;4132392;28;19972;-60